createdAt,value
2022-10-01T00:01:17.035Z,22.10
2022-10-01T00:03:43.934Z,23.90
2022-10-01T00:06:13.901Z,22.10
2022-10-01T00:08:42.848Z,21.30
2022-10-01T00:11:12.602Z,20.80
2022-10-01T00:13:40.188Z,22.20
2022-10-01T00:16:09.001Z,23.40
2022-10-01T00:18:41.746Z,22.10
2022-10-01T00:21:10.667Z,23.50
2022-10-01T00:23:38.506Z,23.70
2022-10-01T00:26:17.454Z,22.00
2022-10-01T00:28:46.887Z,21.40
2022-10-01T00:31:16.037Z,21.30
2022-10-01T00:33:43.278Z,20.30
2022-10-01T00:36:11.727Z,20.00
2022-10-01T00:38:42.895Z,22.20
2022-10-01T00:41:10.588Z,22.40
2022-10-01T00:43:42.632Z,21.20
2022-10-01T00:46:42.447Z,20.50
2022-10-01T00:49:19.173Z,21.10
2022-10-01T00:51:51.183Z,21.20
2022-10-01T00:54:23.964Z,21.90
2022-10-01T00:56:54.217Z,23.00
2022-10-01T00:59:21.599Z,21.30
2022-10-01T01:01:49.168Z,21.30
2022-10-01T01:04:19.198Z,21.10
2022-10-01T01:06:56.050Z,22.00
2022-10-01T01:09:34.108Z,22.20
2022-10-01T01:12:31.658Z,23.20
2022-10-01T01:15:07.831Z,23.30
2022-10-01T01:17:48.417Z,21.10
2022-10-01T01:20:47.385Z,21.00
2022-10-01T01:23:16.833Z,21.30
2022-10-01T01:26:21.880Z,22.20
2022-10-01T01:28:56.092Z,23.10
2022-10-01T01:31:29.639Z,22.30
2022-10-01T01:34:00.379Z,23.70
2022-10-01T01:36:32.955Z,23.50
2022-10-01T01:39:04.393Z,21.60
2022-10-01T01:41:35.750Z,21.90
2022-10-01T01:44:07.086Z,21.60
2022-10-01T01:46:36.357Z,23.00
2022-10-01T01:49:05.518Z,23.10
2022-10-01T01:51:40.424Z,22.40
2022-10-01T01:54:08.546Z,22.80
2022-10-01T01:56:35.929Z,23.10
2022-10-01T01:59:04.029Z,23.70
2022-10-01T02:01:40.364Z,22.80
2022-10-01T02:04:12.077Z,23.40
2022-10-01T02:07:06.874Z,24.80
2022-10-01T02:10:12.644Z,24.10
2022-10-01T02:12:55.105Z,23.30
2022-10-01T02:15:36.316Z,22.90
2022-10-01T02:18:18.865Z,22.50
2022-10-01T02:20:50.868Z,23.60
2022-10-01T02:23:26.135Z,24.50
2022-10-01T02:25:58.597Z,26.30
2022-10-01T02:28:26.331Z,24.10
2022-10-01T02:30:56.276Z,23.00
2022-10-01T02:33:32.159Z,24.80
2022-10-01T02:36:01.513Z,27.30
2022-10-01T02:38:29.966Z,24.80
2022-10-01T02:41:01.257Z,27.20
2022-10-01T02:43:43.313Z,24.70
2022-10-01T02:46:22.158Z,25.00
2022-10-01T02:48:51.561Z,24.50
2022-10-01T02:51:18.306Z,24.30
2022-10-01T02:53:49.583Z,24.30
2022-10-01T02:56:48.631Z,25.50
2022-10-01T02:59:15.847Z,26.50
2022-10-01T03:01:42.927Z,26.10
2022-10-01T03:04:09.802Z,25.70
2022-10-01T03:06:36.792Z,24.40
2022-10-01T03:09:03.896Z,23.10
2022-10-01T03:11:31.055Z,23.60
2022-10-01T03:13:58.498Z,23.60
2022-10-01T03:16:25.583Z,25.00
2022-10-01T03:18:52.495Z,25.80
2022-10-01T03:21:19.386Z,26.20
2022-10-01T03:23:46.269Z,25.50
2022-10-01T03:26:13.108Z,23.30
2022-10-01T03:28:39.905Z,23.30
2022-10-01T03:31:11.587Z,25.90
2022-10-01T03:33:38.588Z,24.70
2022-10-01T03:36:05.508Z,24.60
2022-10-01T03:38:32.379Z,24.00
2022-10-01T03:40:59.202Z,25.60
2022-10-01T03:43:29.141Z,24.90
2022-10-01T03:45:56.986Z,23.70
2022-10-01T03:48:24.761Z,24.00
2022-10-01T03:50:59.784Z,26.00
2022-10-01T03:53:28.286Z,25.80
2022-10-01T03:55:56.335Z,25.00
2022-10-01T03:58:23.719Z,25.80
2022-10-01T04:00:51.332Z,24.40
2022-10-01T04:03:18.802Z,24.60
2022-10-01T04:05:46.290Z,23.90
2022-10-01T04:08:14.031Z,24.60
2022-10-01T04:10:42.117Z,26.20
2022-10-01T04:13:09.768Z,24.30
2022-10-01T04:15:36.916Z,25.00
2022-10-01T04:18:06.286Z,24.90
2022-10-01T04:20:38.402Z,26.50
2022-10-01T04:23:05.943Z,24.10
2022-10-01T04:25:32.902Z,25.10
2022-10-01T04:28:02.636Z,26.80
2022-10-01T04:30:33.576Z,25.50
2022-10-01T04:33:00.887Z,25.40
2022-10-01T04:35:28.307Z,25.10
2022-10-01T04:38:02.122Z,26.10
2022-10-01T04:40:30.409Z,25.80
2022-10-01T04:42:57.665Z,26.20
2022-10-01T04:45:24.595Z,27.10
2022-10-01T04:47:54.223Z,26.00
2022-10-01T04:50:23.716Z,23.40
2022-10-01T04:52:51.574Z,22.40
2022-10-01T04:55:20.635Z,24.90
2022-10-01T04:57:48.329Z,24.20
2022-10-01T05:00:19.378Z,25.50
2022-10-01T05:02:48.308Z,25.30
2022-10-01T05:05:17.518Z,25.90
2022-10-01T05:07:44.815Z,26.10
2022-10-01T05:10:20.077Z,22.00
2022-10-01T05:12:47.844Z,23.30
2022-10-01T05:15:16.730Z,24.00
2022-10-01T05:17:44.073Z,24.30
2022-10-01T05:20:16.958Z,27.30
2022-10-01T05:22:45.246Z,26.90
2022-10-01T05:25:12.173Z,27.30
2022-10-01T05:27:40.593Z,24.80
2022-10-01T05:30:09.806Z,26.30
2022-10-01T05:32:37.943Z,26.40
2022-10-01T05:35:08.870Z,26.80
2022-10-01T05:37:36.157Z,27.30
2022-10-01T05:40:03.223Z,26.90
2022-10-01T05:42:30.158Z,26.30
2022-10-01T05:44:57.181Z,26.10
2022-10-01T05:47:24.147Z,26.70
2022-10-01T05:49:50.995Z,27.90
2022-10-01T05:52:18.039Z,27.60
2022-10-01T05:54:44.909Z,29.10
2022-10-01T05:57:11.863Z,29.10
2022-10-01T05:59:38.725Z,29.80
2022-10-01T06:02:05.817Z,28.20
2022-10-01T06:04:34.749Z,27.80
2022-10-01T06:07:04.348Z,28.50
2022-10-01T06:09:31.484Z,28.70
2022-10-01T06:12:01.181Z,28.50
2022-10-01T06:14:28.411Z,27.90
2022-10-01T06:19:57.747Z,26.20
2022-10-01T06:22:25.092Z,25.00
2022-10-01T06:24:56.494Z,25.30
2022-10-01T06:27:24.636Z,23.00
2022-10-01T06:29:51.777Z,24.30
2022-10-01T06:32:20.216Z,25.20
2022-10-01T06:35:08.997Z,24.70
2022-10-01T06:37:39.430Z,21.80
2022-10-01T06:40:07.612Z,23.00
2022-10-01T06:42:34.767Z,22.40
2022-10-01T06:45:01.700Z,22.70
2022-10-01T06:47:28.921Z,24.50
2022-10-01T06:49:55.742Z,24.40
2022-10-01T06:52:41.180Z,25.20
2022-10-01T06:55:13.093Z,23.10
2022-10-01T06:57:43.037Z,20.50
2022-10-01T07:00:11.321Z,19.30
2022-10-01T07:02:38.933Z,21.10
2022-10-01T07:05:07.571Z,22.30
2022-10-01T07:07:38.665Z,21.20
2022-10-01T07:10:07.701Z,22.40
2022-10-01T07:12:36.088Z,23.80
2022-10-01T07:15:03.212Z,22.10
2022-10-01T07:17:49.768Z,23.30
2022-10-01T07:20:18.825Z,23.60
2022-10-01T07:22:47.697Z,23.80
2022-10-01T07:25:15.463Z,23.00
2022-10-01T07:27:42.423Z,22.60
2022-10-01T07:30:10.005Z,22.80
2022-10-01T07:32:37.149Z,21.80
2022-10-01T07:35:06.167Z,21.60
2022-10-01T07:37:33.209Z,21.80
2022-10-01T07:40:03.058Z,23.00
2022-10-01T07:42:33.617Z,23.50
2022-10-01T07:45:00.666Z,24.50
2022-10-01T07:47:27.633Z,24.80
2022-10-01T07:49:54.579Z,22.80
2022-10-01T07:52:21.499Z,22.40
2022-10-01T07:54:48.813Z,22.50
2022-10-01T07:57:15.802Z,18.10
2022-10-01T07:59:43.112Z,17.70
2022-10-01T08:02:17.832Z,16.30
2022-10-01T08:05:03.713Z,11.70
2022-10-01T08:07:32.184Z,14.30
2022-10-01T08:10:00.012Z,13.40
2022-10-01T08:12:29.128Z,13.20
2022-10-01T08:14:56.302Z,16.00
2022-10-01T08:17:27.254Z,15.00
2022-10-01T08:19:56.736Z,17.10
2022-10-01T08:22:23.765Z,15.80
2022-10-01T08:24:50.554Z,15.20
2022-10-01T08:27:17.311Z,16.40
2022-10-01T08:29:44.099Z,15.60
2022-10-01T08:32:11.395Z,19.00
2022-10-01T08:34:38.340Z,19.90
2022-10-01T08:37:05.587Z,20.60
2022-10-01T08:39:32.493Z,20.40
2022-10-01T08:42:36.754Z,20.60
2022-10-01T08:45:12.811Z,20.50
2022-10-01T08:47:44.317Z,20.50
2022-10-01T08:50:49.716Z,22.30
2022-10-01T08:53:39.987Z,20.70
2022-10-01T08:56:18.056Z,18.30
2022-10-01T08:58:50.454Z,19.30
2022-10-01T09:01:17.418Z,18.80
2022-10-01T09:03:44.336Z,18.20
2022-10-01T09:06:28.565Z,18.60
2022-10-01T09:09:07.378Z,16.20
2022-10-01T09:11:58.903Z,14.50
2022-10-01T09:14:36.070Z,12.90
2022-10-01T09:17:22.004Z,12.70
2022-10-01T09:19:59.186Z,12.60
2022-10-01T09:22:39.398Z,9.90
2022-10-01T09:25:27.890Z,12.60
2022-10-01T09:28:07.585Z,13.20
2022-10-01T09:30:36.719Z,14.70
2022-10-01T09:33:15.652Z,14.20
2022-10-01T09:36:05.277Z,13.20
2022-10-01T09:38:48.477Z,13.10
2022-10-01T09:41:16.330Z,13.10
2022-10-01T09:43:44.093Z,12.60
2022-10-01T09:46:17.250Z,13.00
2022-10-01T09:49:09.571Z,13.10
2022-10-01T09:51:42.944Z,13.70
2022-10-01T09:54:17.811Z,13.00
2022-10-01T09:57:20.007Z,13.60
2022-10-01T10:00:18.781Z,14.60
2022-10-01T10:02:49.556Z,15.00
2022-10-01T10:05:19.806Z,16.60
2022-10-01T10:07:58.995Z,15.50
2022-10-01T10:10:35.941Z,14.20
2022-10-01T10:13:17.499Z,15.80
2022-10-01T10:15:52.378Z,15.10
2022-10-01T10:18:29.990Z,16.60
2022-10-01T10:20:59.496Z,15.30
2022-10-01T10:23:26.992Z,15.70
2022-10-01T10:26:02.989Z,14.80
2022-10-01T10:31:16.304Z,14.30
2022-10-01T10:34:16.513Z,13.30
2022-10-01T10:36:46.009Z,12.80
2022-10-01T10:39:29.491Z,14.60
2022-10-01T10:41:58.723Z,13.30
2022-10-01T10:44:35.326Z,14.60
2022-10-01T10:47:07.495Z,15.50
2022-10-01T10:49:44.010Z,15.30
2022-10-01T10:52:29.205Z,15.70
2022-10-01T10:54:58.043Z,16.30
2022-10-01T10:57:28.177Z,17.00
2022-10-01T10:59:59.752Z,16.00
2022-10-01T11:02:32.185Z,14.90
2022-10-01T11:05:20.775Z,16.70
2022-10-01T11:07:51.355Z,17.40
2022-10-01T11:10:31.220Z,16.20
2022-10-01T11:13:18.696Z,16.50
2022-10-01T11:16:05.802Z,15.40
2022-10-01T11:18:56.675Z,14.80
2022-10-01T11:21:29.223Z,14.40
2022-10-01T11:24:33.379Z,14.20
2022-10-01T11:27:07.026Z,14.00
2022-10-01T11:29:43.654Z,14.80
2022-10-01T11:32:48.016Z,15.50
2022-10-01T11:35:27.203Z,16.30
2022-10-01T11:38:27.494Z,15.70
2022-10-01T11:41:07.045Z,14.20
2022-10-01T11:43:41.029Z,15.00
2022-10-01T11:46:14.365Z,15.30
2022-10-01T11:48:45.065Z,15.40
2022-10-01T11:51:18.294Z,14.40
2022-10-01T11:53:54.772Z,14.60
2022-10-01T11:56:46.458Z,13.30
2022-10-01T11:59:34.750Z,14.30
2022-10-01T12:02:28.377Z,12.60
2022-10-01T12:04:55.866Z,11.00
2022-10-01T12:07:28.249Z,10.70
2022-10-01T12:09:54.998Z,9.80
2022-10-01T12:12:42.623Z,10.10
2022-10-01T12:15:19.143Z,10.30
2022-10-01T12:17:54.338Z,10.30
2022-10-01T12:20:30.749Z,10.30
2022-10-01T12:23:00.868Z,10.20
2022-10-01T12:25:40.059Z,10.30
2022-10-01T12:28:13.667Z,11.30
2022-10-01T12:31:06.384Z,11.60
2022-10-01T12:34:02.173Z,11.40
2022-10-01T12:36:38.228Z,10.30
2022-10-01T12:39:42.207Z,11.50
2022-10-01T12:43:06.353Z,10.00
2022-10-01T12:46:06.799Z,9.60
2022-10-01T12:48:55.011Z,9.20
2022-10-01T12:51:31.280Z,8.40
2022-10-01T12:54:24.689Z,8.80
2022-10-01T12:57:01.888Z,8.90
2022-10-01T12:59:35.938Z,8.70
2022-10-01T13:02:42.033Z,9.80
2022-10-01T13:05:50.147Z,10.00
2022-10-01T13:08:58.486Z,10.40
2022-10-01T13:11:57.373Z,9.70
2022-10-01T13:14:25.828Z,9.70
2022-10-01T13:17:09.818Z,8.70
2022-10-01T13:20:18.198Z,9.10
2022-10-01T13:22:57.170Z,9.70
2022-10-01T13:25:45.736Z,9.10
2022-10-01T13:28:17.750Z,9.10
2022-10-01T13:30:53.334Z,9.60
2022-10-01T13:33:24.813Z,8.90
2022-10-01T13:35:58.707Z,8.70
2022-10-01T13:38:39.523Z,8.40
2022-10-01T13:41:31.239Z,8.00
2022-10-01T13:44:04.908Z,6.00
2022-10-01T13:46:36.113Z,6.20
2022-10-01T13:49:17.784Z,6.20
2022-10-01T13:51:46.248Z,7.00
2022-10-01T13:54:28.769Z,6.30
2022-10-01T13:56:55.769Z,5.80
2022-10-01T13:59:34.637Z,5.70
2022-10-01T14:02:03.471Z,6.40
2022-10-01T14:04:40.364Z,5.80
2022-10-01T14:07:18.168Z,5.50
2022-10-01T14:09:50.141Z,5.40
2022-10-01T14:12:52.604Z,9.50
2022-10-01T14:15:44.790Z,5.50
2022-10-01T14:18:23.624Z,10.00
2022-10-01T14:21:17.990Z,7.70
2022-10-01T14:24:01.763Z,5.10
2022-10-01T14:26:43.495Z,5.80
2022-10-01T14:29:34.925Z,6.50
2022-10-01T14:32:23.515Z,5.90
2022-10-01T14:35:20.846Z,6.10
2022-10-01T14:37:48.029Z,6.30
2022-10-01T14:40:21.907Z,6.10
2022-10-01T14:43:02.540Z,6.80
2022-10-01T14:45:30.449Z,6.70
2022-10-01T14:48:02.467Z,7.50
2022-10-01T14:50:32.929Z,7.40
2022-10-01T14:52:59.862Z,8.20
2022-10-01T14:55:27.885Z,7.30
2022-10-01T14:57:56.445Z,8.30
2022-10-01T15:00:26.522Z,8.70
2022-10-01T15:03:03.641Z,8.80
2022-10-01T15:05:33.771Z,8.60
2022-10-01T15:08:13.886Z,8.20
2022-10-01T15:10:45.864Z,8.80
2022-10-01T15:13:34.011Z,9.10
2022-10-01T15:16:02.169Z,9.40
2022-10-01T15:18:30.078Z,10.20
2022-10-01T15:21:02.749Z,9.30
2022-10-01T15:23:30.920Z,10.30
2022-10-01T15:26:00.791Z,10.40
2022-10-01T15:28:33.607Z,10.40
2022-10-01T15:31:06.842Z,11.60
2022-10-01T15:33:40.710Z,11.20
2022-10-01T15:36:18.053Z,12.60
2022-10-01T15:38:49.137Z,11.80
2022-10-01T15:41:32.542Z,12.30
2022-10-01T15:44:03.787Z,12.50
2022-10-01T15:46:35.103Z,11.20
2022-10-01T15:49:17.433Z,12.20
2022-10-01T15:52:11.732Z,11.80
2022-10-01T15:54:41.979Z,13.00
2022-10-01T15:57:10.460Z,13.40
2022-10-01T15:59:41.049Z,13.60
2022-10-01T16:02:14.538Z,13.20
2022-10-01T16:04:41.745Z,12.60
2022-10-01T16:07:20.096Z,12.40
2022-10-01T16:09:56.930Z,12.60
2022-10-01T16:12:23.881Z,13.90
2022-10-01T16:14:58.069Z,13.20
2022-10-01T16:17:35.393Z,13.80
2022-10-01T16:20:14.570Z,14.70
2022-10-01T16:22:42.474Z,13.60
2022-10-01T16:25:19.877Z,14.00
2022-10-01T16:27:56.456Z,13.50
2022-10-01T16:30:27.810Z,13.10
2022-10-01T16:32:56.231Z,13.00
2022-10-01T16:35:24.625Z,13.80
2022-10-01T16:37:55.121Z,14.70
2022-10-01T16:40:27.388Z,14.60
2022-10-01T16:42:54.720Z,14.00
2022-10-01T16:45:27.836Z,15.50
2022-10-01T16:47:59.223Z,14.20
2022-10-01T16:50:26.462Z,14.10
2022-10-01T16:52:55.713Z,13.30
2022-10-01T16:55:25.811Z,14.00
2022-10-01T16:57:54.780Z,12.40
2022-10-01T17:00:24.643Z,13.40
2022-10-01T17:02:52.610Z,12.60
2022-10-01T17:05:25.636Z,12.30
2022-10-01T17:07:54.019Z,13.40
2022-10-01T17:10:23.704Z,13.30
2022-10-01T17:12:51.548Z,13.00
2022-10-01T17:15:23.426Z,13.40
2022-10-01T17:17:50.198Z,12.40
2022-10-01T17:20:17.199Z,12.80
2022-10-01T17:22:44.213Z,12.40
2022-10-01T17:25:15.801Z,13.20
2022-10-01T17:27:42.928Z,13.30
2022-10-01T17:30:10.130Z,14.50
2022-10-01T17:32:39.890Z,14.50
2022-10-01T17:35:07.787Z,14.70
2022-10-01T17:37:35.039Z,14.20
2022-10-01T17:40:02.478Z,12.90
2022-10-01T17:42:31.065Z,14.30
2022-10-01T17:44:58.153Z,14.30
2022-10-01T17:47:25.110Z,14.40
2022-10-01T17:49:51.948Z,15.20
2022-10-01T17:52:19.156Z,15.40
2022-10-01T17:54:46.410Z,15.60
2022-10-01T17:57:14.053Z,15.50
2022-10-01T17:59:41.035Z,15.20
2022-10-01T18:02:29.666Z,15.00
2022-10-01T18:04:56.455Z,15.50
2022-10-01T18:07:27.525Z,16.50
2022-10-01T18:09:54.630Z,16.70
2022-10-01T18:12:21.684Z,16.70
2022-10-01T18:14:50.030Z,16.90
2022-10-01T18:17:17.456Z,16.40
2022-10-01T18:22:32.207Z,16.60
2022-10-01T18:24:59.103Z,17.20
2022-10-01T18:27:26.186Z,16.00
2022-10-01T18:29:53.214Z,19.00
2022-10-01T18:32:23.675Z,18.30
2022-10-01T18:34:54.511Z,17.90
2022-10-01T18:37:21.261Z,18.30
2022-10-01T18:39:56.043Z,18.50
2022-10-01T18:42:55.340Z,17.20
2022-10-01T18:46:04.286Z,18.20
2022-10-01T18:48:49.902Z,18.20
2022-10-01T18:51:21.327Z,18.30
2022-10-01T18:53:58.575Z,19.70
2022-10-01T18:56:33.706Z,19.00
2022-10-01T18:59:22.456Z,18.90
2022-10-01T19:02:04.694Z,18.20
2022-10-01T19:04:45.946Z,21.20
2022-10-01T19:07:37.370Z,19.10
2022-10-01T19:10:41.743Z,20.00
2022-10-01T19:13:28.324Z,18.90
2022-10-01T19:16:19.438Z,20.00
2022-10-01T19:19:04.399Z,18.90
2022-10-01T19:21:49.578Z,17.80
2022-10-01T19:24:59.480Z,19.00
2022-10-01T19:28:26.300Z,20.00
2022-10-01T19:31:23.697Z,20.60
2022-10-01T19:33:56.730Z,19.90
2022-10-01T19:36:37.677Z,20.70
2022-10-01T19:39:11.028Z,19.80
2022-10-01T19:41:51.938Z,19.10
2022-10-01T19:44:45.033Z,19.20
2022-10-01T19:47:44.006Z,19.80
2022-10-01T19:50:29.300Z,20.60
2022-10-01T19:52:58.666Z,20.50
2022-10-01T19:55:33.991Z,20.90
2022-10-01T19:58:21.630Z,20.10
2022-10-01T20:00:54.650Z,19.30
2022-10-01T20:03:34.860Z,19.30
2022-10-01T20:06:20.557Z,20.50
2022-10-01T20:08:56.091Z,19.90
2022-10-01T20:11:36.494Z,20.10
2022-10-01T20:14:36.386Z,21.50
2022-10-01T20:17:24.473Z,19.20
2022-10-01T20:20:13.349Z,19.80
2022-10-01T20:22:58.704Z,19.90
2022-10-01T20:25:25.751Z,19.40
2022-10-01T20:28:19.412Z,20.00
2022-10-01T20:31:00.749Z,21.20
2022-10-01T20:34:06.528Z,21.40
2022-10-01T20:37:10.279Z,22.20
2022-10-01T20:39:44.279Z,21.50
2022-10-01T20:42:18.304Z,21.10
2022-10-01T20:44:46.437Z,21.70
2022-10-01T20:47:23.932Z,22.60
2022-10-01T20:50:09.177Z,22.90
2022-10-01T20:53:08.720Z,22.10
2022-10-01T20:55:46.155Z,22.80
2022-10-01T20:58:22.389Z,21.20
2022-10-01T21:00:54.593Z,21.80
2022-10-01T21:03:27.898Z,22.10
2022-10-01T21:06:15.884Z,20.90
2022-10-01T21:08:57.632Z,20.70
2022-10-01T21:11:33.869Z,21.40
2022-10-01T21:14:41.700Z,18.80
2022-10-01T21:17:34.515Z,21.80
2022-10-01T21:20:21.819Z,21.90
2022-10-01T21:22:57.784Z,22.10
2022-10-01T21:28:31.473Z,23.80
2022-10-01T21:31:17.311Z,23.60
2022-10-01T21:34:03.306Z,26.30
2022-10-01T21:37:16.314Z,24.10
2022-10-01T21:40:08.160Z,20.50
2022-10-01T21:42:53.363Z,22.60
2022-10-01T21:46:00.476Z,22.50
2022-10-01T21:49:01.099Z,23.70
2022-10-01T21:51:49.378Z,19.90
2022-10-01T21:54:51.484Z,22.00
2022-10-01T21:57:27.484Z,21.90
2022-10-01T22:00:20.216Z,20.00
2022-10-01T22:03:12.082Z,19.70
2022-10-01T22:06:13.095Z,20.60
2022-10-01T22:08:52.144Z,20.30
2022-10-01T22:11:23.558Z,23.80
2022-10-01T22:14:00.442Z,19.30
2022-10-01T22:16:35.380Z,18.00
2022-10-01T22:19:16.718Z,18.80
2022-10-01T22:21:48.530Z,17.50
2022-10-01T22:24:22.416Z,16.70
2022-10-01T22:27:11.688Z,16.10
2022-10-01T22:29:43.556Z,16.20
2022-10-01T22:32:14.206Z,17.30
2022-10-01T22:34:48.328Z,16.30
2022-10-01T22:37:23.437Z,15.60
2022-10-01T22:40:05.351Z,17.00
2022-10-01T22:42:41.221Z,17.40
2022-10-01T22:45:16.897Z,16.30
2022-10-01T22:47:58.887Z,16.90
2022-10-01T22:50:34.309Z,15.00
2022-10-01T22:53:24.183Z,14.40
2022-10-01T22:55:55.146Z,12.40
2022-10-01T22:58:37.026Z,15.60
2022-10-01T23:01:09.438Z,13.10
2022-10-01T23:04:14.204Z,13.90
2022-10-01T23:07:07.665Z,11.90
2022-10-01T23:10:04.496Z,10.70
2022-10-01T23:12:47.280Z,9.30
2022-10-01T23:15:43.655Z,9.80
2022-10-01T23:18:41.067Z,10.90
2022-10-01T23:21:29.044Z,8.20
2022-10-01T23:24:05.833Z,7.10
2022-10-01T23:26:44.980Z,8.80
2022-10-01T23:29:49.306Z,7.30
2022-10-01T23:32:34.706Z,7.90
2022-10-01T23:35:13.789Z,7.50
2022-10-01T23:38:04.398Z,8.90
2022-10-01T23:40:44.548Z,7.40
2022-10-01T23:43:36.205Z,7.20
2022-10-01T23:46:15.893Z,7.90
2022-10-01T23:48:46.867Z,6.10
2022-10-01T23:51:25.928Z,7.10
2022-10-01T23:54:03.198Z,7.80
2022-10-01T23:56:48.866Z,7.10
2022-10-01T23:59:37.636Z,6.40
